Time;durP1;ratioP1;P1;durP2;ratioP2;P2;SDS_P1;SDS_P2;PMS_P1;PMS_P2;Temp;Humidity;BMP_temperature;BMP_pressure;BME280_temperature;BME280_humidity;BME280_pressure;Samples;Min_cycle;Max_cycle;Signal;HPM_P1;HPM_P2
2022/02/03 00:00:24;;;;;;;;;;;10.20;99.90;;;;;;5090052;28;19956;-75
2022/02/03 00:03:11;;;;;;;;;;;10.20;99.90;;;;;;5072361;28;20287;-75
2022/02/03 00:11:13;;;;;;;;;;;10.20;99.90;;;;;;5089610;28;19912;-75
2022/02/03 00:24:48;;;;;;;;;;;10.20;99.90;;;;;;5089478;28;19915;-75
2022/02/03 00:27:23;;;;;;;;;;;10.10;99.90;;;;;;5089347;28;19916;-75
2022/02/03 00:32:45;;;;;;;;;;;10.20;99.90;;;;;;5089148;28;19908;-75
2022/02/03 00:35:41;;;;;;;;;;;10.20;99.90;;;;;;5088443;28;20385;-75
2022/02/03 00:48:56;;;;;;;;;;;10.10;99.90;;;;;;5089259;28;19965;-75
2022/02/03 00:51:23;;;;;;;;;;;10.10;99.90;;;;;;5089279;28;20267;-75
2022/02/03 00:53:49;;;;;;;;;;;10.00;99.90;;;;;;5087588;28;20262;-75
2022/02/03 00:56:15;;;;;;;;;;;10.00;99.90;;;;;;5088718;28;19972;-76
2022/02/03 00:59:00;;;;;;;;;;;9.90;99.90;;;;;;5087402;28;19908;-76
2022/02/03 01:01:28;;;;;;;;;;;9.90;99.90;;;;;;5088633;28;20018;-75
2022/02/03 01:03:55;;;;;;;;;;;9.90;99.90;;;;;;5088494;28;19914;-75
2022/02/03 01:06:22;;;;;;;;;;;9.90;99.90;;;;;;5088663;28;20401;-75
2022/02/03 01:08:50;;;;;;;;;;;9.90;99.90;;;;;;5088549;28;20315;-75
2022/02/03 01:11:24;;;;;;;;;;;9.90;99.90;;;;;;5088776;28;19961;-75
2022/02/03 01:14:06;;;;;;;;;;;9.80;99.90;;;;;;5088481;28;20274;-75
2022/02/03 01:19:20;;;;;;;;;;;9.50;99.90;;;;;;5088530;28;20333;-75
2022/02/03 01:45:53;;;;;;;;;;;9.60;99.90;;;;;;5088341;28;19951;-75
2022/02/03 01:53:33;;;;;;;;;;;9.70;99.90;;;;;;5088461;28;19927;-75
2022/02/03 01:56:12;;;;;;;;;;;9.80;99.90;;;;;;5086588;28;19913;-75
2022/02/03 01:58:46;;;;;;;;;;;9.80;99.90;;;;;;5088061;28;19912;-75
2022/02/03 02:01:28;;;;;;;;;;;9.90;99.90;;;;;;5086693;28;19916;-76
2022/02/03 02:03:54;;;;;;;;;;;9.90;99.90;;;;;;5086615;28;19916;-75
2022/02/03 02:06:38;;;;;;;;;;;9.90;99.90;;;;;;5087907;28;20373;-75
2022/02/03 02:09:23;;;;;;;;;;;9.80;99.90;;;;;;5086569;28;19912;-76
2022/02/03 02:36:50;;;;;;;;;;;9.90;99.90;;;;;;5088161;28;19954;-75
2022/02/03 02:39:34;;;;;;;;;;;9.50;99.90;;;;;;5091534;28;20010;-75
2022/02/03 02:45:05;;;;;;;;;;;9.50;99.90;;;;;;5091354;28;19914;-75
2022/02/03 02:47:56;;;;;;;;;;;9.50;99.90;;;;;;5091122;28;19908;-75
2022/02/03 02:50:31;;;;;;;;;;;9.50;99.90;;;;;;5091201;28;19919;-75
2022/02/03 02:53:17;;;;;;;;;;;9.50;99.90;;;;;;5091193;28;19926;-75
2022/02/03 03:04:03;;;;;;;;;;;9.60;99.90;;;;;;5091247;28;19990;-74
2022/02/03 03:36:37;;;;;;;;;;;9.70;99.90;;;;;;5090282;28;19915;-75
2022/02/03 03:39:03;;;;;;;;;;;9.70;99.90;;;;;;5090301;28;20044;-75
2022/02/03 03:41:32;;;;;;;;;;;9.70;99.90;;;;;;5088228;28;19912;-75
2022/02/03 03:44:03;;;;;;;;;;;9.80;99.90;;;;;;5090193;28;20400;-75
2022/02/03 03:46:32;;;;;;;;;;;9.80;99.90;;;;;;5088783;28;19922;-75
2022/02/03 03:49:07;;;;;;;;;;;9.80;99.90;;;;;;5090298;28;19908;-75
2022/02/03 03:51:39;;;;;;;;;;;9.80;99.90;;;;;;5089973;28;20323;-75
2022/02/03 03:54:08;;;;;;;;;;;9.80;99.90;;;;;;5089904;28;19909;-75
2022/02/03 03:56:43;;;;;;;;;;;9.80;99.90;;;;;;5090023;28;19908;-75
2022/02/03 05:00:04;;;;;;;;;;;10.00;99.90;;;;;;5088705;28;19973;-75
2022/02/03 05:02:02;;;;;;;;;;;10.00;99.90;;;;;;5079921;28;20286;-75
2022/02/03 05:10:28;;;;;;;;;;;10.00;99.90;;;;;;5088566;28;19923;-75
2022/02/03 05:13:07;;;;;;;;;;;10.00;99.90;;;;;;5088495;28;20373;-75
2022/02/03 05:21:35;;;;;;;;;;;10.00;99.90;;;;;;5088400;28;19955;-76
2022/02/03 05:49:51;;;;;;;;;;;10.00;99.90;;;;;;5088156;28;19908;-74
2022/02/03 06:08:47;;;;;;;;;;;10.00;99.90;;;;;;5091019;28;20362;-75
2022/02/03 06:21:57;;;;;;;;;;;10.00;99.90;;;;;;5090713;28;20365;-74
2022/02/03 06:29:48;;;;;;;;;;;10.00;99.90;;;;;;5091237;28;19927;-74
2022/02/03 06:32:14;;;;;;;;;;;10.00;99.90;;;;;;5091312;28;20157;-76
2022/02/03 06:34:39;;;;;;;;;;;9.90;99.90;;;;;;5091438;28;19908;-75
2022/02/03 06:37:05;;;;;;;;;;;9.80;99.90;;;;;;5091344;28;19912;-75
2022/02/03 06:39:31;;;;;;;;;;;9.70;99.90;;;;;;5091289;28;20388;-75
2022/02/03 06:41:58;;;;;;;;;;;9.60;99.90;;;;;;5090044;28;19916;-75
2022/02/03 06:44:52;;;;;;;;;;;9.50;99.90;;;;;;5089914;28;19908;-74
2022/02/03 06:52:50;;;;;;;;;;;9.50;99.90;;;;;;5091237;28;19916;-75
2022/02/03 06:58:04;;;;;;;;;;;9.60;99.90;;;;;;5091093;28;19908;-75
2022/02/03 07:00:38;;;;;;;;;;;9.60;99.90;;;;;;5090992;28;19912;-75
2022/02/03 07:03:09;;;;;;;;;;;9.60;99.90;;;;;;5090853;28;19988;-75
2022/02/03 07:05:35;;;;;;;;;;;9.70;99.90;;;;;;5089453;28;19916;-75
2022/02/03 07:08:00;;;;;;;;;;;9.70;99.90;;;;;;5090790;28;19950;-75
2022/02/03 07:10:26;;;;;;;;;;;9.80;99.90;;;;;;5089296;28;19977;-75
2022/02/03 07:12:52;;;;;;;;;;;9.80;99.90;;;;;;5089182;28;20259;-75
2022/02/03 07:15:17;;;;;;;;;;;9.80;99.90;;;;;;5089846;28;19920;-75
2022/02/03 07:17:44;;;;;;;;;;;9.80;99.90;;;;;;5090399;28;19920;-75
2022/02/03 07:20:12;;;;;;;;;;;9.80;99.90;;;;;;5090415;28;20094;-75
2022/02/03 07:22:40;;;;;;;;;;;9.80;99.90;;;;;;5090317;28;20349;-75
2022/02/03 07:25:06;;;;;;;;;;;9.70;99.90;;;;;;5090487;28;20377;-75
2022/02/03 07:27:32;;;;;;;;;;;9.60;99.90;;;;;;5089257;28;19997;-74
2022/02/03 07:29:58;;;;;;;;;;;9.50;99.90;;;;;;5088728;28;20400;-75
2022/02/03 07:32:24;;;;;;;;;;;9.50;99.90;;;;;;5089020;28;19938;-75
2022/02/03 07:34:57;;;;;;;;;;;9.40;99.90;;;;;;5092365;28;19912;-76
2022/02/03 07:37:24;;;;;;;;;;;9.30;99.90;;;;;;5090356;28;19920;-75
2022/02/03 07:39:50;;;;;;;;;;;9.30;99.90;;;;;;5089925;28;19919;-75
2022/02/03 07:42:15;;;;;;;;;;;9.20;99.90;;;;;;5089775;28;19920;-75
2022/02/03 07:44:41;;;;;;;;;;;9.20;99.90;;;;;;5089798;28;20428;-75
2022/02/03 07:47:07;;;;;;;;;;;9.10;99.90;;;;;;5088753;28;19916;-75
2022/02/03 07:49:34;;;;;;;;;;;9.10;99.90;;;;;;5089843;28;19969;-75
2022/02/03 07:52:04;;;;;;;;;;;9.10;99.90;;;;;;5089890;28;19956;-75
2022/02/03 07:54:31;;;;;;;;;;;9.00;99.90;;;;;;5089729;28;19909;-75
2022/02/03 07:56:57;;;;;;;;;;;9.00;99.90;;;;;;5089442;28;20310;-75
2022/02/03 07:59:23;;;;;;;;;;;9.00;99.90;;;;;;5089555;28;20011;-75
2022/02/03 08:01:49;;;;;;;;;;;9.10;99.90;;;;;;5089585;28;19959;-75
2022/02/03 08:04:15;;;;;;;;;;;9.10;99.90;;;;;;5089811;28;19973;-75
2022/02/03 08:06:44;;;;;;;;;;;9.20;99.90;;;;;;5089474;28;20424;-75
2022/02/03 08:09:20;;;;;;;;;;;9.20;99.90;;;;;;5089378;28;19916;-75
2022/02/03 08:11:48;;;;;;;;;;;9.20;99.90;;;;;;5089262;28;19995;-75
2022/02/03 08:14:18;;;;;;;;;;;9.20;99.90;;;;;;5089342;28;19912;-75
2022/02/03 08:17:07;;;;;;;;;;;9.20;99.90;;;;;;5088400;28;19923;-75
2022/02/03 08:19:42;;;;;;;;;;;9.10;99.90;;;;;;5088398;28;19913;-74
2022/02/03 08:22:32;;;;;;;;;;;9.00;99.90;;;;;;5089078;28;19916;-74
2022/02/03 08:25:13;;;;;;;;;;;9.10;99.90;;;;;;5087882;28;19977;-74
2022/02/03 08:27:51;;;;;;;;;;;9.00;99.90;;;;;;5087314;28;19912;-74
2022/02/03 08:32:58;;;;;;;;;;;9.30;99.90;;;;;;5088240;28;19912;-75
2022/02/03 08:35:44;;;;;;;;;;;9.50;99.90;;;;;;5088436;28;19912;-75
2022/02/03 08:38:18;;;;;;;;;;;9.60;99.90;;;;;;5087009;28;19969;-74
2022/02/03 08:40:58;;;;;;;;;;;9.70;99.90;;;;;;5086600;28;20354;-76
2022/02/03 08:43:24;;;;;;;;;;;9.70;99.90;;;;;;5088080;28;20259;-76
2022/02/03 08:45:50;;;;;;;;;;;9.70;99.90;;;;;;5088124;28;20191;-76
2022/02/03 08:48:16;;;;;;;;;;;9.70;99.90;;;;;;5086912;28;19911;-76
2022/02/03 08:50:42;;;;;;;;;;;9.70;99.90;;;;;;5088149;28;19987;-75
2022/02/03 08:55:54;;;;;;;;;;;9.80;99.90;;;;;;5088462;28;19912;-76
2022/02/03 09:55:00;;;;;;;;;;;13.70;99.40;;;;;;5087349;28;19912;-75
2022/02/03 10:00:25;;;;;;;;;;;13.10;99.00;;;;;;5076454;28;19920;-76
2022/02/03 10:02:55;;;;;;;;;;;12.70;99.00;;;;;;5074622;28;19992;-75
2022/02/03 10:05:40;;;;;;;;;;;12.50;99.40;;;;;;5076243;28;20002;-76
2022/02/03 10:08:11;;;;;;;;;;;12.40;99.90;;;;;;5074063;28;19912;-75
2022/02/03 10:10:37;;;;;;;;;;;12.20;99.70;;;;;;5083730;28;19913;-76
2022/02/03 10:13:14;;;;;;;;;;;12.20;99.60;;;;;;5078980;28;19909;-76
2022/02/03 10:15:40;;;;;;;;;;;12.20;99.90;;;;;;5072909;28;19954;-75
2022/02/03 10:18:18;;;;;;;;;;;12.50;99.90;;;;;;5079756;28;19959;-76
2022/02/03 10:20:47;;;;;;;;;;;12.70;99.80;;;;;;5068548;28;19913;-75
2022/02/03 10:23:19;;;;;;;;;;;12.60;99.40;;;;;;5068297;28;20348;-75
2022/02/03 10:25:44;;;;;;;;;;;12.60;99.20;;;;;;5067053;28;20432;-75
2022/02/03 10:28:13;;;;;;;;;;;12.50;99.10;;;;;;5066862;28;19917;-76
2022/02/03 10:30:49;;;;;;;;;;;12.40;99.10;;;;;;5066876;28;19929;-76
2022/02/03 10:33:19;;;;;;;;;;;12.30;99.10;;;;;;5075635;28;20415;-76
2022/02/03 10:35:57;;;;;;;;;;;12.30;99.20;;;;;;5089230;28;19943;-76
2022/02/03 10:49:21;;;;;;;;;;;12.60;98.80;;;;;;5062339;28;19921;-76
2022/02/03 10:54:46;;;;;;;;;;;12.50;98.50;;;;;;5084532;28;19919;-75
2022/02/03 10:57:37;;;;;;;;;;;12.40;98.70;;;;;;5085058;28;20286;-65
2022/02/03 11:08:18;;;;;;;;;;;13.20;98.70;;;;;;5092570;28;19915;-77
2022/02/03 11:10:50;;;;;;;;;;;13.40;98.40;;;;;;5092730;28;19937;-76
2022/02/03 11:13:16;;;;;;;;;;;13.40;97.70;;;;;;5091031;28;19912;-78
2022/02/03 11:15:42;;;;;;;;;;;13.30;97.70;;;;;;5092278;28;19908;-76
2022/02/03 11:18:08;;;;;;;;;;;13.20;97.40;;;;;;5092126;28;19935;-76
2022/02/03 11:20:38;;;;;;;;;;;13.00;97.40;;;;;;5091227;28;19912;-76
2022/02/03 11:23:30;;;;;;;;;;;12.80;97.60;;;;;;5092165;28;19912;-76
2022/02/03 11:26:10;;;;;;;;;;;12.70;97.90;;;;;;5091979;28;19919;-76
2022/02/03 11:47:48;;;;;;;;;;;12.80;97.70;;;;;;5040044;28;19973;-77
2022/02/03 12:02:04;;;;;;;;;;;13.10;98.10;;;;;;5091025;28;19919;-76
2022/02/03 12:10:35;;;;;;;;;;;13.60;97.80;;;;;;5092165;28;19923;-78
2022/02/03 12:21:26;;;;;;;;;;;13.60;97.90;;;;;;5091112;28;20033;-76
2022/02/03 12:24:13;;;;;;;;;;;13.80;97.60;;;;;;5092815;28;20323;-77
2022/02/03 12:26:47;;;;;;;;;;;13.80;97.40;;;;;;5090212;28;20045;-77
2022/02/03 12:29:22;;;;;;;;;;;14.00;97.40;;;;;;5093049;28;19916;-78
2022/02/03 12:32:28;;;;;;;;;;;14.00;96.90;;;;;;5091966;28;19916;-79
2022/02/03 12:40:31;;;;;;;;;;;14.00;96.60;;;;;;5091893;28;20002;-77
2022/02/03 12:43:46;;;;;;;;;;;13.90;96.70;;;;;;5090712;28;20015;-77
2022/02/03 12:45:50;;;;;;;;;;;14.10;97.00;;;;;;5082827;28;19915;-76
2022/02/03 12:48:22;;;;;;;;;;;14.50;96.90;;;;;;5090534;28;19909;-76
2022/02/03 12:50:48;;;;;;;;;;;14.80;96.30;;;;;;5090898;28;19908;-75
2022/02/03 12:53:13;;;;;;;;;;;15.00;96.00;;;;;;5090131;28;20389;-75
2022/02/03 12:55:41;;;;;;;;;;;15.20;95.20;;;;;;5089511;28;19912;-76
2022/02/03 12:58:12;;;;;;;;;;;15.20;94.90;;;;;;5090546;28;19912;-78
2022/02/03 13:00:46;;;;;;;;;;;15.30;95.00;;;;;;5089885;28;20000;-77
2022/02/03 13:03:13;;;;;;;;;;;15.50;95.30;;;;;;5090038;28;19915;-76
2022/02/03 13:05:40;;;;;;;;;;;15.60;94.40;;;;;;5089878;28;20297;-77
2022/02/03 13:08:07;;;;;;;;;;;15.50;94.00;;;;;;5088617;28;20522;-78
2022/02/03 13:10:36;;;;;;;;;;;15.30;94.00;;;;;;5090572;28;19908;-78
2022/02/03 13:13:09;;;;;;;;;;;15.10;93.90;;;;;;5089168;28;19921;-79
2022/02/03 13:15:39;;;;;;;;;;;14.90;94.00;;;;;;5090858;28;19916;-76
2022/02/03 13:18:11;;;;;;;;;;;14.70;94.00;;;;;;5089324;28;19917;-77
2022/02/03 13:20:42;;;;;;;;;;;14.50;94.10;;;;;;5090018;28;20012;-77
2022/02/03 13:23:14;;;;;;;;;;;14.30;94.20;;;;;;5090554;28;19915;-77
2022/02/03 13:25:54;;;;;;;;;;;14.30;94.20;;;;;;5091275;28;19955;-77
2022/02/03 13:28:34;;;;;;;;;;;14.20;94.40;;;;;;5091355;28;19908;-76
2022/02/03 13:31:35;;;;;;;;;;;14.20;94.40;;;;;;5090904;28;20366;-76
2022/02/03 13:34:08;;;;;;;;;;;14.30;94.30;;;;;;5087874;28;20150;-77
2022/02/03 13:36:40;;;;;;;;;;;14.40;94.70;;;;;;5088492;28;19915;-78
2022/02/03 13:39:22;;;;;;;;;;;14.60;94.70;;;;;;5089491;28;19912;-78
2022/02/03 13:41:50;;;;;;;;;;;14.70;94.40;;;;;;5090612;28;19919;-79
2022/02/03 13:44:17;;;;;;;;;;;14.70;94.10;;;;;;5091119;28;20316;-80
2022/02/03 13:46:43;;;;;;;;;;;14.70;94.00;;;;;;5092188;28;19912;-80
2022/02/03 13:49:16;;;;;;;;;;;14.70;94.00;;;;;;5091453;28;20019;-79
2022/02/03 13:51:44;;;;;;;;;;;14.60;93.80;;;;;;5092591;28;20272;-81
2022/02/03 13:54:34;;;;;;;;;;;14.50;93.90;;;;;;5092263;28;19947;-78
2022/02/03 14:22:04;;;;;;;;;;;13.70;94.70;;;;;;5070168;28;20557;-77
2022/02/03 14:27:21;;;;;;;;;;;13.50;94.80;;;;;;5089020;28;19992;-76
2022/02/03 14:29:50;;;;;;;;;;;13.40;95.00;;;;;;5091914;28;19947;-73
2022/02/03 14:32:20;;;;;;;;;;;13.30;95.20;;;;;;5092138;28;20381;-75
2022/02/03 14:34:48;;;;;;;;;;;13.40;95.40;;;;;;5092969;28;19923;-79
2022/02/03 14:39:57;;;;;;;;;;;13.60;95.30;;;;;;5092747;28;19919;-75
2022/02/03 14:42:22;;;;;;;;;;;13.70;95.20;;;;;;5092341;28;19939;-76
2022/02/03 14:44:48;;;;;;;;;;;13.60;95.30;;;;;;5092290;28;20350;-75
2022/02/03 14:47:14;;;;;;;;;;;13.60;95.10;;;;;;5091466;28;19912;-77
2022/02/03 14:49:43;;;;;;;;;;;13.60;95.20;;;;;;5091367;28;19960;-77
2022/02/03 14:52:31;;;;;;;;;;;13.50;95.20;;;;;;5085486;28;20128;-78
2022/02/03 14:58:03;;;;;;;;;;;13.50;95.30;;;;;;5089546;28;19919;-78
2022/02/03 15:00:30;;;;;;;;;;;13.50;95.20;;;;;;5092671;28;19912;-76
2022/02/03 15:02:56;;;;;;;;;;;13.50;95.20;;;;;;5092216;28;19916;-79
2022/02/03 15:05:31;;;;;;;;;;;13.50;95.20;;;;;;5092237;28;19915;-74
2022/02/03 15:07:59;;;;;;;;;;;13.60;95.10;;;;;;5088972;28;19953;-76
2022/02/03 15:10:41;;;;;;;;;;;13.70;95.00;;;;;;5092528;28;19912;-75
2022/02/03 15:15:33;;;;;;;;;;;13.90;94.70;;;;;;5093682;28;19920;-80
2022/02/03 15:17:58;;;;;;;;;;;13.90;94.50;;;;;;5094929;28;20048;-79
2022/02/03 15:20:24;;;;;;;;;;;13.90;94.30;;;;;;5094057;28;19908;-76
2022/02/03 15:22:50;;;;;;;;;;;13.80;94.30;;;;;;5091943;28;19923;-76
2022/02/03 15:25:15;;;;;;;;;;;13.80;94.20;;;;;;5092856;28;19912;-79
2022/02/03 15:27:41;;;;;;;;;;;13.60;94.30;;;;;;5092432;28;19912;-76
2022/02/03 15:30:07;;;;;;;;;;;13.60;94.30;;;;;;5092405;28;19924;-76
2022/02/03 15:32:38;;;;;;;;;;;13.50;94.40;;;;;;5092281;28;19912;-75
2022/02/03 15:35:07;;;;;;;;;;;13.40;94.40;;;;;;5092387;28;19965;-76
2022/02/03 15:37:34;;;;;;;;;;;13.40;94.50;;;;;;5092394;28;19932;-79
2022/02/03 15:40:04;;;;;;;;;;;13.30;94.60;;;;;;5093121;28;20087;-77
2022/02/03 15:42:30;;;;;;;;;;;13.30;94.60;;;;;;5091310;28;19912;-80
2022/02/03 15:44:58;;;;;;;;;;;13.30;94.60;;;;;;5075051;28;19916;-78
2022/02/03 16:15:02;;;;;;;;;;;13.00;94.80;;;;;;5070722;28;19922;-62
2022/02/03 16:17:07;;;;;;;;;;;12.90;94.90;;;;;;5070607;28;19913;-77
2022/02/03 16:19:50;;;;;;;;;;;13.00;95.00;;;;;;5071071;28;19920;-78
2022/02/03 16:22:26;;;;;;;;;;;13.00;95.00;;;;;;5072233;28;19916;-77
2022/02/03 16:24:59;;;;;;;;;;;13.00;94.90;;;;;;5072600;28;19913;-76
2022/02/03 16:55:06;;;;;;;;;;;12.70;95.10;;;;;;5090101;28;19954;-77
2022/02/03 16:57:31;;;;;;;;;;;12.70;95.10;;;;;;5090879;28;19912;-77
2022/02/03 17:00:01;;;;;;;;;;;12.80;95.00;;;;;;5089929;28;19919;-78
2022/02/03 17:02:27;;;;;;;;;;;12.80;95.00;;;;;;5089634;28;19939;-75
2022/02/03 17:04:56;;;;;;;;;;;12.80;95.00;;;;;;5091817;28;19912;-76
2022/02/03 17:07:25;;;;;;;;;;;12.80;94.90;;;;;;5089117;28;19915;-79
2022/02/03 17:10:03;;;;;;;;;;;12.80;94.90;;;;;;5090276;28;19926;-76
2022/02/03 17:12:29;;;;;;;;;;;12.80;94.80;;;;;;5081544;28;19908;-75
2022/02/03 17:14:55;;;;;;;;;;;12.80;94.80;;;;;;5089865;28;20377;-76
2022/02/03 17:17:22;;;;;;;;;;;12.80;94.90;;;;;;5071911;28;20323;-75
2022/02/03 17:19:48;;;;;;;;;;;12.80;94.90;;;;;;5088130;28;20271;-76
2022/02/03 17:22:15;;;;;;;;;;;12.80;94.80;;;;;;5089443;28;19920;-75
2022/02/03 17:24:49;;;;;;;;;;;12.80;95.00;;;;;;5089138;28;19956;-74
2022/02/03 17:30:12;;;;;;;;;;;12.60;94.90;;;;;;5089756;28;19931;-74
2022/02/03 18:32:34;;;;;;;;;;;12.70;95.30;;;;;;5092572;28;19923;-76
2022/02/03 18:45:45;;;;;;;;;;;12.70;95.40;;;;;;5091854;28;19919;-76
2022/02/03 18:53:36;;;;;;;;;;;12.60;95.50;;;;;;5070503;28;19955;-78
2022/02/03 18:56:33;;;;;;;;;;;12.60;95.50;;;;;;5068752;28;20377;-75
2022/02/03 18:59:05;;;;;;;;;;;12.70;95.50;;;;;;5069481;28;20023;-75
2022/02/03 19:14:57;;;;;;;;;;;12.40;96.00;;;;;;5066958;28;20042;-76
2022/02/03 20:08:37;;;;;;;;;;;9.70;97.80;;;;;;5069397;28;20306;-76
2022/02/03 20:10:56;;;;;;;;;;;9.60;97.80;;;;;;5068772;28;19916;-75
2022/02/03 20:13:22;;;;;;;;;;;9.60;97.80;;;;;;5069100;28;19916;-76
2022/02/03 20:15:48;;;;;;;;;;;9.50;97.90;;;;;;5069074;28;19912;-77
2022/02/03 20:18:14;;;;;;;;;;;9.50;97.90;;;;;;5069346;28;20337;-75
2022/02/03 20:20:41;;;;;;;;;;;9.50;97.90;;;;;;5069146;28;19908;-75
2022/02/03 20:23:12;;;;;;;;;;;9.50;97.90;;;;;;5069080;28;20271;-76
2022/02/03 20:25:39;;;;;;;;;;;9.50;98.00;;;;;;5068803;28;19912;-76
2022/02/03 20:28:06;;;;;;;;;;;9.40;98.00;;;;;;5068979;28;19908;-76
2022/02/03 20:30:31;;;;;;;;;;;9.40;98.00;;;;;;5068641;28;19941;-76
2022/02/03 20:32:57;;;;;;;;;;;9.40;98.00;;;;;;5068826;28;19908;-76
2022/02/03 20:35:23;;;;;;;;;;;9.40;97.90;;;;;;5067838;28;20247;-76
2022/02/03 20:37:48;;;;;;;;;;;9.40;98.00;;;;;;5068875;28;19912;-76
2022/02/03 20:40:14;;;;;;;;;;;9.40;98.00;;;;;;5068673;28;20411;-76
2022/02/03 20:42:40;;;;;;;;;;;9.40;98.00;;;;;;5067230;28;19917;-75
2022/02/03 20:45:06;;;;;;;;;;;9.40;98.10;;;;;;5067514;28;19987;-75
2022/02/03 20:47:32;;;;;;;;;;;9.40;98.00;;;;;;5068993;28;19916;-76
2022/02/03 20:49:58;;;;;;;;;;;9.30;98.00;;;;;;5068436;28;20282;-75
2022/02/03 20:52:24;;;;;;;;;;;9.30;98.10;;;;;;5068657;28;19912;-75
2022/02/03 20:54:49;;;;;;;;;;;9.20;98.10;;;;;;5068419;28;19917;-76
2022/02/03 20:57:15;;;;;;;;;;;9.20;98.10;;;;;;5068622;28;20382;-76
2022/02/03 21:02:26;;;;;;;;;;;9.10;98.10;;;;;;5068312;28;20332;-75
2022/02/03 21:07:23;;;;;;;;;;;9.00;98.20;;;;;;5067556;28;20329;-76
2022/02/03 21:09:49;;;;;;;;;;;9.00;98.10;;;;;;5068136;28;19908;-78
2022/02/03 21:12:14;;;;;;;;;;;9.00;98.20;;;;;;5068160;28;19939;-77
2022/02/03 21:14:40;;;;;;;;;;;9.00;98.10;;;;;;5066754;28;19968;-77
2022/02/03 21:17:06;;;;;;;;;;;9.00;98.10;;;;;;5068108;28;20363;-77
2022/02/03 21:19:32;;;;;;;;;;;8.90;98.10;;;;;;5068297;28;19935;-76
2022/02/03 21:21:57;;;;;;;;;;;8.80;98.10;;;;;;5066676;28;19939;-77
2022/02/03 21:24:23;;;;;;;;;;;8.70;98.50;;;;;;5067823;28;20277;-77
2022/02/03 21:26:51;;;;;;;;;;;8.70;98.30;;;;;;5067929;28;19944;-77
2022/02/03 21:29:17;;;;;;;;;;;8.80;98.40;;;;;;5068009;28;20003;-76
2022/02/03 21:31:43;;;;;;;;;;;8.80;98.30;;;;;;5066548;28;20359;-76
2022/02/03 21:34:14;;;;;;;;;;;8.80;98.20;;;;;;5067298;28;20023;-77
2022/02/03 21:36:41;;;;;;;;;;;8.80;98.20;;;;;;5066695;28;20389;-76
2022/02/03 21:39:06;;;;;;;;;;;8.80;98.10;;;;;;5066315;28;20370;-77
2022/02/03 21:41:32;;;;;;;;;;;8.80;98.00;;;;;;5068252;28;19935;-76
2022/02/03 21:43:57;;;;;;;;;;;8.70;98.00;;;;;;5068042;28;19909;-77
2022/02/03 21:46:23;;;;;;;;;;;8.80;98.10;;;;;;5067791;28;20484;-76
2022/02/03 21:48:50;;;;;;;;;;;8.70;98.10;;;;;;5068017;28;20056;-77
2022/02/03 21:51:22;;;;;;;;;;;8.80;98.10;;;;;;5067776;28;19924;-77
2022/02/03 21:53:48;;;;;;;;;;;8.70;98.00;;;;;;5068030;28;19908;-76
2022/02/03 21:56:15;;;;;;;;;;;8.70;98.00;;;;;;5067801;28;20011;-77
2022/02/03 21:58:40;;;;;;;;;;;8.60;98.00;;;;;;5066347;28;19958;-77
2022/02/03 22:01:06;;;;;;;;;;;8.60;98.10;;;;;;5067552;28;19920;-77
2022/02/03 22:03:31;;;;;;;;;;;8.60;98.10;;;;;;5067727;28;19909;-76
2022/02/03 22:05:58;;;;;;;;;;;8.60;98.10;;;;;;5066756;28;20004;-76
2022/02/03 22:08:24;;;;;;;;;;;8.50;98.00;;;;;;5066332;28;19912;-76
2022/02/03 22:10:50;;;;;;;;;;;8.50;98.10;;;;;;5066356;28;19939;-76
2022/02/03 22:13:16;;;;;;;;;;;8.50;98.10;;;;;;5068119;28;20010;-75
2022/02/03 22:15:42;;;;;;;;;;;8.50;98.10;;;;;;5067934;28;20338;-76
2022/02/03 22:18:12;;;;;;;;;;;8.40;98.10;;;;;;5066316;28;20366;-77
2022/02/03 22:20:51;;;;;;;;;;;8.50;98.10;;;;;;5066369;28;20054;-76
2022/02/03 22:45:01;;;;;;;;;;;8.40;98.00;;;;;;5068180;28;19919;-76
2022/02/03 22:48:23;;;;;;;;;;;8.40;97.90;;;;;;5071208;28;20002;-77
2022/02/03 22:50:13;;;;;;;;;;;8.40;97.90;;;;;;5056765;28;19926;-76
2022/02/03 22:52:42;;;;;;;;;;;8.40;97.90;;;;;;5071326;28;20025;-76
2022/02/03 22:55:08;;;;;;;;;;;8.40;97.90;;;;;;5070868;28;19967;-77
2022/02/03 22:57:34;;;;;;;;;;;8.30;98.10;;;;;;5070752;28;19989;-77
2022/02/03 23:00:15;;;;;;;;;;;8.30;97.90;;;;;;5070856;28;19963;-76
2022/02/03 23:02:41;;;;;;;;;;;8.30;98.00;;;;;;5070791;28;19916;-77
2022/02/03 23:05:07;;;;;;;;;;;8.30;98.00;;;;;;5070519;28;19912;-76
2022/02/03 23:10:19;;;;;;;;;;;8.40;98.10;;;;;;5070834;28;20327;-76
2022/02/03 23:17:57;;;;;;;;;;;8.30;98.10;;;;;;5070139;28;20325;-77
2022/02/03 23:20:26;;;;;;;;;;;8.40;98.10;;;;;;5069250;28;19914;-77
2022/02/03 23:22:52;;;;;;;;;;;8.30;98.10;;;;;;5070072;28;19917;-76
2022/02/03 23:25:19;;;;;;;;;;;8.30;98.10;;;;;;5070368;28;20373;-77
2022/02/03 23:30:12;;;;;;;;;;;8.20;98.00;;;;;;5070140;28;19924;-75
2022/02/03 23:32:38;;;;;;;;;;;8.20;98.10;;;;;;5070198;28;20178;-77
2022/02/03 23:35:15;;;;;;;;;;;8.20;98.10;;;;;;5070264;28;19909;-76
2022/02/03 23:37:45;;;;;;;;;;;8.10;98.20;;;;;;5070445;28;19908;-75
2022/02/03 23:40:17;;;;;;;;;;;8.10;98.20;;;;;;5070268;28;19951;-76
